Airfield :
LOGIN :

Register | Disclaimer

   EN    FR    IT 

 










Legend :    VFR   Marginal VFR   IFR   Intensive IFR   Very Intensive IFR
Visi :
Ceiling :
>= 8 km
>= 3000ft
5 to 8 km
1000 to 3000 ft
1500m to 5 km
500 to 1000 ft
800 to 1500m
200 to 500 ft
< 800m
< 200 ft
Symbols :   Thunderstorms  Fog  Heavy snow  Heavy precipitations  Wind > 20 kt
SIGMETs :     Misc.  Thunderstorms  Icing  Turbulence  Mountain Waves  Volcanic Ashes






- Airport Elevation : 1830 ft


EBLB - Butgenbach Elsenborn

CURRENT METAR :
  • 031955Z AUTO VRB02KT 9999 FEW079/// BKN240/// 14/09 Q1003 BLU

EXPIRED METARs :
  • 031925Z AUTO 34003KT 9999 NCD 16/09 Q1003 BLU
  • 031855Z AUTO VRB02KT 9999 NCD 17/10 Q1003 BLU
  • 031825Z AUTO 31004KT 9999 FEW080/// 18/09 Q1003 BLU
  • 031755Z AUTO 31004KT 9999 SCT077/// 19/09 Q1003 BLU
  • 031725Z AUTO 30005KT 9999 NCD 19/08 Q1003 BLU

Expired Forecast.



MET'MAP, your aeronautical weather chart ! - Copyright ORBIFLY December 2007 - Disclaimer

ORBIFLY MET'MAP TEAM :

Programming & Development : Alexandra Zaïnal
Concept & original design : Baudouin d'Aumeries
Assistance for programming : Marc-Olivier Méhu
Technical & hardware support : Manuel Goepfert

Contact : metmap@orbifly.com




SOURCES & CREDITS :

   NOAA